Time;durP1;ratioP1;P1;durP2;ratioP2;P2;SDS_P1;SDS_P2;PMS_P1;PMS_P2;Temp;Humidity;BMP_temperature;BMP_pressure;BME280_temperature;BME280_humidity;BME280_pressure;Samples;Min_cycle;Max_cycle;Signal;HPM_P1;HPM_P2
2022/09/19 00:00:24;;;;;;;37.83;25.73;;;;;;;29.90;73.36;98041.63;4991707;28;20053;-70
2022/09/19 00:03:13;;;;;;;40.13;26.02;;;;;;;29.92;72.87;98044.06;5008538;28;20049;-71
2022/09/19 00:05:55;;;;;;;35.22;25.60;;;;;;;29.89;72.75;98045.59;5007558;28;20052;-71
2022/09/19 00:08:52;;;;;;;39.83;25.70;;;;;;;29.86;73.62;98046.28;5010830;28;20065;-71
2022/09/19 00:11:28;;;;;;;35.97;26.42;;;;;;;29.82;73.24;98048.97;5019976;28;20053;-71
2022/09/19 00:14:27;;;;;;;34.40;26.23;;;;;;;29.90;73.78;98051.91;5026921;28;20049;-71
2022/09/19 00:17:07;;;;;;;33.70;26.02;;;;;;;29.88;73.38;98054.22;5026793;28;20053;-70
2022/09/19 00:19:56;;;;;;;39.65;25.15;;;;;;;29.87;73.88;98047.91;5020909;28;20058;-72
2022/09/19 00:24:45;;;;;;;34.58;25.40;;;;;;;29.88;73.66;98060.56;5006895;28;20057;-72
2022/09/19 00:26:06;;;;;;;39.78;25.70;;;;;;;29.88;74.04;98065.31;5006635;28;20045;-71
2022/09/19 00:28:43;;;;;;;32.75;24.40;;;;;;;29.87;73.85;98061.75;4993025;28;20434;-71
2022/09/19 00:31:32;;;;;;;34.17;26.15;;;;;;;29.82;74.29;98073.06;4986660;28;20120;-71
2022/09/19 00:34:15;;;;;;;39.65;25.30;;;;;;;29.78;74.24;98069.41;4986027;28;20061;-72
2022/09/19 00:37:04;;;;;;;34.83;25.70;;;;;;;29.82;74.48;98067.53;4995564;28;20045;-70
2022/09/19 00:39:47;;;;;;;42.25;26.75;;;;;;;29.78;74.63;98067.44;4989762;28;20050;-70
2022/09/19 00:42:43;;;;;;;32.97;25.05;;;;;;;29.84;74.17;98071.53;4990189;28;20056;-70
2022/09/19 00:45:32;;;;;;;42.85;26.60;;;;;;;29.81;74.77;98080.56;5000947;28;20038;-72
2022/09/19 00:48:24;;;;;;;33.70;24.92;;;;;;;29.81;74.72;98077.81;5026405;28;20542;-72
2022/09/19 00:51:06;;;;;;;36.85;25.27;;;;;;;29.79;74.68;98082.91;5026096;28;20123;-71
2022/09/19 00:53:56;;;;;;;37.22;25.15;;;;;;;29.77;74.92;98082.44;5009315;28;20045;-72
2022/09/19 00:56:56;;;;;;;47.13;28.65;;;;;;;29.79;74.73;98077.38;5009148;28;20517;-72
2022/09/19 00:59:36;;;;;;;44.42;27.58;;;;;;;29.86;74.58;98085.81;5026526;28;20480;-71
2022/09/19 01:02:28;;;;;;;39.50;25.92;;;;;;;29.82;74.83;98093.22;5008764;28;20050;-71
2022/09/19 01:05:11;;;;;;;44.67;26.13;;;;;;;29.83;74.59;98085.75;5016277;28;20069;-71
2022/09/19 01:08:19;;;;;;;35.40;26.02;;;;;;;29.90;74.99;98085.91;5025603;28;20072;-71
2022/09/19 01:11:23;;;;;;;39.25;25.83;;;;;;;29.92;74.69;98094.66;5029474;28;20052;-71
2022/09/19 01:14:30;;;;;;;39.28;26.95;;;;;;;29.92;74.26;98093.84;5029645;28;20057;-70
2022/09/19 01:17:29;;;;;;;46.55;27.33;;;;;;;29.92;75.06;98093.84;5028206;28;20060;-71
2022/09/19 01:20:18;;;;;;;51.75;27.85;;;;;;;29.95;74.30;98096.72;5019125;28;20060;-71
2022/09/19 01:23:26;;;;;;;42.08;26.70;;;;;;;30.01;74.00;98102.78;5032333;28;20044;-71
2022/09/19 01:26:31;;;;;;;38.97;26.52;;;;;;;29.99;73.61;98105.91;5031545;28;20127;-71
2022/09/19 01:29:32;;;;;;;41.63;26.77;;;;;;;30.00;74.03;98115.00;5048816;28;20044;-71
2022/09/19 01:32:31;;;;;;;42.67;27.38;;;;;;;30.06;74.15;98111.59;5026692;28;20115;-71
2022/09/19 01:35:18;;;;;;;43.13;25.60;;;;;;;30.03;74.21;98117.06;5017719;28;20434;-71
2022/09/19 01:38:40;;;;;;;45.80;26.30;;;;;;;30.09;73.79;98118.38;5013074;28;20416;-71
2022/09/19 01:41:35;;;;;;;46.33;27.52;;;;;;;30.14;74.54;98126.41;5010173;28;20495;-71
2022/09/19 01:44:33;;;;;;;46.22;26.48;;;;;;;30.13;74.31;98124.78;5013019;28;20050;-70
2022/09/19 01:47:41;;;;;;;41.90;26.35;;;;;;;30.26;74.50;98131.84;4998701;28;20046;-69
2022/09/19 01:50:55;;;;;;;44.85;27.70;;;;;;;30.30;73.79;98133.91;4991291;28;20110;-69
2022/09/19 01:54:20;;;;;;;42.53;26.50;;;;;;;30.33;74.91;98130.47;5006292;28;20395;-69
2022/09/19 01:57:20;;;;;;;52.55;27.38;;;;;;;30.31;73.43;98141.06;5010796;28;20106;-69
2022/09/19 02:00:10;;;;;;;57.13;30.25;;;;;;;30.37;73.06;98143.22;5011743;28;20140;-68
2022/09/19 02:03:23;;;;;;;45.67;31.17;;;;;;;30.18;73.79;98146.69;5011427;28;20099;-71
2022/09/19 02:06:22;;;;;;;50.35;29.58;;;;;;;30.42;73.34;98150.41;4995016;28;20377;-69
2022/09/19 02:09:37;;;;;;;48.23;29.67;;;;;;;30.58;74.68;98158.72;5011071;28;20053;-71
2022/09/19 02:12:23;;;;;;;53.42;28.05;;;;;;;30.77;73.56;98157.97;5010140;28;20282;-72
2022/09/19 02:15:26;;;;;;;53.40;31.70;;;;;;;30.79;73.29;98163.94;4981549;28;20053;-72
2022/09/19 02:18:54;;;;;;;50.63;29.25;;;;;;;30.88;73.41;98164.53;5010364;28;20058;-71
2022/09/19 02:22:05;;;;;;;46.30;29.27;;;;;;;30.81;72.34;98173.47;4996941;28;20064;-72
2022/09/19 02:24:58;;;;;;;41.10;26.95;;;;;;;31.10;73.32;98174.13;5010737;28;20045;-72
2022/09/19 02:27:57;;;;;;;48.67;27.10;;;;;;;30.68;72.76;98168.44;4994728;28;20133;-72
2022/09/19 02:30:47;;;;;;;43.80;25.67;;;;;;;30.83;72.78;98170.34;5010728;28;20064;-71
2022/09/19 02:33:35;;;;;;;47.88;26.75;;;;;;;30.79;72.84;98169.47;5028377;28;20048;-71
2022/09/19 02:36:35;;;;;;;39.58;24.45;;;;;;;30.68;72.40;98176.75;5005647;28;20060;-71
2022/09/19 02:39:49;;;;;;;48.60;25.65;;;;;;;30.82;73.01;98177.88;5011162;28;20468;-72
2022/09/19 02:43:22;;;;;;;48.60;25.80;;;;;;;31.08;70.67;98183.97;4994954;28;20054;-71
2022/09/19 02:46:35;;;;;;;39.60;25.27;;;;;;;31.12;71.13;98182.09;5014809;28;20041;-72
2022/09/19 02:49:39;;;;;;;42.30;25.60;;;;;;;31.25;70.45;98194.63;5029390;28;20061;-71
2022/09/19 02:52:37;;;;;;;58.45;28.85;;;;;;;31.40;69.33;98190.97;5030123;28;20128;-72
2022/09/19 02:55:35;;;;;;;49.65;27.63;;;;;;;31.36;69.53;98198.44;5030286;28;20051;-72
2022/09/19 02:58:31;;;;;;;44.28;28.00;;;;;;;31.27;68.75;98195.06;5019322;28;20057;-72
2022/09/19 03:01:35;;;;;;;53.13;27.30;;;;;;;31.63;69.76;98200.56;5026753;28;20079;-71
2022/09/19 03:04:32;;;;;;;43.80;27.48;;;;;;;31.77;68.77;98193.28;5029790;28;20611;-72
2022/09/19 03:07:27;;;;;;;58.03;29.95;;;;;;;31.69;67.88;98202.66;5030037;28;20059;-71
2022/09/19 03:10:29;;;;;;;49.35;28.95;;;;;;;31.97;67.51;98199.63;4993553;28;20057;-71
2022/09/19 03:13:28;;;;;;;59.10;28.42;;;;;;;31.79;66.65;98202.06;4997147;28;20618;-72
2022/09/19 03:16:35;;;;;;;113.20;32.30;;;;;;;31.93;66.96;98198.75;4995773;28;20130;-72
2022/09/19 03:19:24;;;;;;;56.03;31.08;;;;;;;31.98;67.08;98206.75;5015988;28;20095;-71
2022/09/19 03:22:13;;;;;;;54.95;29.95;;;;;;;32.04;66.58;98204.50;5027413;28;20749;-71
2022/09/19 03:25:03;;;;;;;58.10;30.67;;;;;;;31.92;65.96;98210.22;5027493;28;20041;-72
2022/09/19 03:27:48;;;;;;;50.67;30.88;;;;;;;32.05;66.08;98214.47;5026323;28;20053;-72
2022/09/19 03:30:38;;;;;;;51.90;30.75;;;;;;;32.28;66.43;98219.22;5028745;28;20041;-71
2022/09/19 03:33:28;;;;;;;48.58;29.38;;;;;;;32.48;66.29;98217.16;5023249;28;20123;-72
2022/09/19 03:36:11;;;;;;;50.30;29.65;;;;;;;32.16;65.34;98218.22;5012008;28;20545;-72
2022/09/19 03:39:02;;;;;;;45.70;29.15;;;;;;;32.31;65.94;98221.22;4988393;28;20077;-72
2022/09/19 03:41:51;;;;;;;46.40;29.27;;;;;;;32.70;66.34;98218.31;4988864;28;20132;-72
2022/09/19 03:44:34;;;;;;;53.90;29.85;;;;;;;32.69;66.60;98220.28;4991951;28;20537;-72
2022/09/19 03:47:29;;;;;;;49.58;28.33;;;;;;;32.82;65.53;98225.66;5007651;28;20053;-74
2022/09/19 03:50:19;;;;;;;47.85;29.52;;;;;;;32.82;64.61;98220.88;5019153;28;20105;-72
2022/09/19 03:53:16;;;;;;;39.35;28.77;;;;;;;32.78;64.13;98229.16;5029060;28;20052;-71
2022/09/19 03:56:01;;;;;;;48.28;30.90;;;;;;;32.71;63.30;98231.03;5010006;28;20101;-71
2022/09/19 03:58:50;;;;;;;57.05;30.30;;;;;;;33.08;62.89;98233.97;5009373;28;20064;-71
2022/09/19 04:01:34;;;;;;;46.67;29.80;;;;;;;33.21;62.45;98225.41;5009497;28;20050;-71
2022/09/19 04:04:23;;;;;;;48.35;31.45;;;;;;;33.20;62.63;98227.41;5009580;28;20055;-70
2022/09/19 04:07:24;;;;;;;54.30;30.38;;;;;;;33.58;63.12;98225.47;4993393;28;20246;-70
2022/09/19 04:10:01;;;;;;;53.93;33.70;;;;;;;33.11;62.22;98232.44;5010247;28;20201;-72
2022/09/19 04:12:51;;;;;;;54.05;30.98;;;;;;;33.65;61.30;98239.50;5009750;28;20053;-71
2022/09/19 04:15:40;;;;;;;43.35;31.05;;;;;;;33.58;61.31;98238.59;5011770;28;20048;-72
2022/09/19 04:18:22;;;;;;;49.15;31.65;;;;;;;33.81;60.83;98230.16;5012240;28;20099;-71
2022/09/19 04:21:11;;;;;;;50.97;33.65;;;;;;;33.90;59.92;98236.22;5008402;28;20060;-73
2022/09/19 04:24:25;;;;;;;50.20;31.60;;;;;;;34.24;59.38;98239.75;4999928;28;20056;-72
2022/09/19 04:27:52;;;;;;;51.30;31.75;;;;;;;34.23;59.91;98234.56;4998203;28;20057;-71
2022/09/19 04:30:37;;;;;;;51.25;32.83;;;;;;;34.21;57.58;98236.94;5004647;28;20057;-71
2022/09/19 04:33:33;;;;;;;48.78;29.70;;;;;;;34.97;55.01;98232.75;4992305;28;20064;-72
2022/09/19 04:36:23;;;;;;;48.70;28.35;;;;;;;35.39;55.86;98232.22;5007699;28;20473;-70
2022/09/19 04:39:12;;;;;;;50.47;30.25;;;;;;;35.00;54.21;98234.78;5025815;28;20135;-71
2022/09/19 04:42:02;;;;;;;50.03;28.98;;;;;;;35.58;56.96;98233.88;5009097;28;20049;-72
2022/09/19 04:44:57;;;;;;;53.10;29.35;;;;;;;35.21;54.33;98237.69;5000175;28;20151;-72
2022/09/19 04:48:07;;;;;;;46.58;28.15;;;;;;;36.24;53.42;98241.25;4999216;28;20045;-72
2022/09/19 04:50:58;;;;;;;39.30;25.67;;;;;;;36.70;51.45;98234.91;5022419;28;20045;-72
2022/09/19 04:53:40;;;;;;;49.03;26.23;;;;;;;37.01;50.05;98226.84;5012632;28;20049;-72
2022/09/19 04:56:29;;;;;;;39.83;25.65;;;;;;;37.13;48.37;98218.06;4991484;28;20070;-73
2022/09/19 04:59:12;;;;;;;53.40;25.33;;;;;;;36.59;49.51;98226.50;4992383;28;20065;-74
2022/09/19 05:02:02;;;;;;;41.80;25.30;;;;;;;37.07;51.06;98230.03;4989360;28;20362;-74
2022/09/19 05:04:45;;;;;;;41.40;26.05;;;;;;;37.31;48.11;98217.19;4973300;28;20084;-77
2022/09/19 05:07:35;;;;;;;45.40;26.83;;;;;;;37.01;48.64;98218.44;4973454;28;20478;-70
2022/09/19 05:10:17;;;;;;;44.67;25.70;;;;;;;36.92;47.01;98224.47;4990664;28;20101;-71
2022/09/19 05:13:08;;;;;;;46.53;27.02;;;;;;;37.19;49.30;98227.63;5007626;28;20119;-70
2022/09/19 05:16:02;;;;;;;43.10;30.23;;;;;;;36.82;50.87;98228.91;5006576;28;20080;-70
2022/09/19 05:18:57;;;;;;;57.05;32.80;;;;;;;37.40;47.96;98226.75;4974996;28;20049;-70
2022/09/19 05:21:44;;;;;;;58.95;34.25;;;;;;;36.98;49.19;98222.06;5009612;28;20046;-72
2022/09/19 05:24:37;;;;;;;59.92;33.53;;;;;;;37.44;48.96;98221.13;4991970;28;20057;-72
2022/09/19 05:27:19;;;;;;;54.13;33.72;;;;;;;36.84;48.59;98225.69;4981067;28;20136;-73
2022/09/19 05:30:13;;;;;;;58.25;33.22;;;;;;;36.52;48.60;98220.91;4984743;28;20506;-75
2022/09/19 05:32:57;;;;;;;56.67;34.22;;;;;;;36.93;49.71;98214.88;5005053;28;20070;-76
2022/09/19 05:35:55;;;;;;;57.15;34.25;;;;;;;36.93;50.55;98219.69;4992980;28;20041;-74
2022/09/19 05:38:46;;;;;;;51.22;33.67;;;;;;;37.75;49.01;98210.22;4971413;28;20057;-74
2022/09/19 05:41:44;;;;;;;57.53;36.13;;;;;;;37.61;47.72;98219.50;4956413;28;20055;-74
2022/09/19 05:44:28;;;;;;;54.85;31.40;;;;;;;37.96;44.63;98212.09;5007876;28;20100;-73
2022/09/19 05:47:24;;;;;;;55.63;31.48;;;;;;;38.00;45.57;98207.25;5023741;28;20040;-74
2022/09/19 05:50:15;;;;;;;61.25;29.00;;;;;;;37.85;44.88;98202.94;5030262;28;20598;-74
2022/09/19 05:56:17;;;;;;;45.38;26.38;;;;;;;37.54;42.80;98203.50;5029648;28;20049;-74
2022/09/19 05:59:11;;;;;;;43.47;26.63;;;;;;;37.72;43.93;98206.22;5025142;28;20060;-75
2022/09/19 06:02:07;;;;;;;50.55;26.42;;;;;;;37.90;44.58;98208.13;5010509;28;20499;-75
2022/09/19 06:05:05;;;;;;;40.88;26.58;;;;;;;37.78;44.53;98198.19;5010512;28;20181;-74
2022/09/19 06:07:56;;;;;;;45.65;26.65;;;;;;;37.25;42.93;98202.81;4996329;28;20049;-75
2022/09/19 06:10:53;;;;;;;46.75;25.65;;;;;;;37.45;45.82;98200.31;5009951;28;20037;-76
2022/09/19 06:16:42;;;;;;;46.80;24.92;;;;;;;37.36;46.63;98192.38;5027672;28;20049;-76
2022/09/19 06:19:43;;;;;;;44.70;28.38;;;;;;;37.33;45.04;98184.00;5006189;28;20317;-75
2022/09/19 06:23:02;;;;;;;41.00;26.02;;;;;;;37.65;47.65;98197.09;5027395;28;20045;-75
2022/09/19 06:25:46;;;;;;;47.78;26.65;;;;;;;37.29;42.44;98191.63;5000098;28;20053;-75
2022/09/19 06:28:38;;;;;;;36.13;26.20;;;;;;;37.37;43.45;98185.56;4976023;28;20073;-76
2022/09/19 06:31:21;;;;;;;39.00;24.40;;;;;;;37.18;45.94;98192.44;4993494;28;20053;-76
2022/09/19 06:34:33;;;;;;;39.65;26.17;;;;;;;36.90;45.43;98190.53;5010965;28;20461;-76
2022/09/19 06:37:39;;;;;;;44.15;26.52;;;;;;;36.96;48.38;98191.72;5016094;28;20480;-75
2022/09/19 06:40:30;;;;;;;57.92;29.13;;;;;;;36.91;45.80;98182.94;5009606;28;20049;-76
2022/09/19 06:43:36;;;;;;;44.65;26.90;;;;;;;36.75;47.69;98188.97;5010338;28;20052;-76
2022/09/19 06:47:06;;;;;;;48.88;26.67;;;;;;;37.34;47.99;98177.22;5021789;28;20591;-75
2022/09/19 06:50:23;;;;;;;48.22;28.08;;;;;;;37.16;46.51;98172.47;5028722;28;20048;-74
2022/09/19 06:53:16;;;;;;;44.50;27.60;;;;;;;36.59;45.76;98176.19;5007627;28;20566;-75
2022/09/19 06:56:11;;;;;;;54.50;28.77;;;;;;;36.63;49.54;98174.19;4980317;28;20059;-74
2022/09/19 06:58:55;;;;;;;45.72;27.17;;;;;;;36.21;47.35;98166.63;5009447;28;20045;-75
2022/09/19 07:01:45;;;;;;;53.60;29.25;;;;;;;36.23;50.27;98165.03;5009039;28;20041;-75
2022/09/19 07:04:27;;;;;;;43.03;26.83;;;;;;;36.38;50.00;98162.22;5009570;28;20140;-75
2022/09/19 07:07:23;;;;;;;46.42;27.75;;;;;;;36.18;49.27;98154.25;5013330;28;20452;-75
2022/09/19 07:10:07;;;;;;;49.75;27.95;;;;;;;36.20;49.67;98159.44;5010228;28;20053;-73
2022/09/19 07:13:01;;;;;;;40.92;21.60;;;;;;;36.32;49.02;98156.22;5008720;28;20071;-75
2022/09/19 07:15:45;;;;;;;31.60;20.27;;;;;;;36.39;50.76;98133.09;4981499;28;20045;-75
2022/09/19 07:18:35;;;;;;;49.75;21.35;;;;;;;36.41;51.13;98141.88;4987706;28;20046;-74
2022/09/19 07:21:38;;;;;;;43.17;23.50;;;;;;;36.69;48.21;98137.44;5009517;28;20824;-74
2022/09/19 07:24:49;;;;;;;39.67;23.20;;;;;;;36.78;50.33;98135.03;5026490;28;20772;-74
2022/09/19 07:27:43;;;;;;;37.63;21.73;;;;;;;36.63;44.89;98135.03;5008461;28;20544;-75
2022/09/19 07:30:25;;;;;;;37.63;20.10;;;;;;;37.00;47.39;98133.75;5008666;28;20061;-74
2022/09/19 07:33:17;;;;;;;36.20;19.38;;;;;;;36.93;45.21;98130.97;5026247;28;20048;-74
2022/09/19 07:36:01;;;;;;;27.38;18.90;;;;;;;36.73;43.97;98127.06;4994231;28;20123;-75
2022/09/19 07:38:52;;;;;;;;;;;;;;;37.01;46.44;98120.56;4989482;28;20049;-74
2022/09/19 07:41:50;;;;;;;34.65;20.33;;;;;;;36.90;45.15;98122.59;5004956;28;19925;-74
2022/09/19 07:45:07;;;;;;;45.28;23.00;;;;;;;36.44;46.06;98115.94;5002251;28;20119;-75
2022/09/19 07:48:28;;;;;;;36.00;20.98;;;;;;;36.65;46.44;98115.09;4903025;28;20063;-75
2022/09/19 07:51:47;;;;;;;34.67;20.73;;;;;;;36.35;47.88;98123.91;4970891;28;20129;-75
2022/09/19 07:54:32;;;;;;;32.92;20.55;;;;;;;36.43;47.01;98119.91;4967847;28;20362;-75
2022/09/19 07:57:32;;;;;;;34.97;21.20;;;;;;;36.47;46.77;98109.50;4984472;28;20470;-75
2022/09/19 08:00:15;;;;;;;47.47;20.97;;;;;;;36.73;47.15;98093.50;4996660;28;20045;-75
2022/09/19 08:03:15;;;;;;;38.17;21.05;;;;;;;36.77;44.21;98092.28;4972471;28;20092;-74
2022/09/19 08:05:58;;;;;;;42.53;21.30;;;;;;;36.80;45.48;98096.25;5004061;28;20148;-75
2022/09/19 08:08:49;;;;;;;26.60;19.88;;;;;;;36.44;46.02;98093.56;4972134;28;20565;-75
2022/09/19 08:12:03;;;;;;;32.17;20.48;;;;;;;36.48;47.53;98082.34;4949047;28;20046;-75
2022/09/19 08:15:05;;;;;;;38.78;20.30;;;;;;;36.58;50.42;98081.53;4987029;28;20074;-75
2022/09/19 08:18:01;;;;;;;36.28;20.00;;;;;;;36.51;48.53;98071.16;4982218;28;20481;-75
2022/09/19 08:20:55;;;;;;;33.72;19.55;;;;;;;36.50;49.74;98072.38;4969666;28;20081;-74
2022/09/19 08:23:47;;;;;;;40.80;21.60;;;;;;;36.31;47.99;98073.63;4986007;28;20050;-74
2022/09/19 08:26:30;;;;;;;31.38;21.38;;;;;;;36.30;46.44;98060.84;4985004;28;20103;-75
2022/09/19 08:29:20;;;;;;;44.20;23.58;;;;;;;36.28;46.70;98056.88;4995714;28;20037;-76
2022/09/19 08:32:12;;;;;;;42.97;24.95;;;;;;;36.16;47.46;98058.06;4989076;28;20045;-75
2022/09/19 08:35:01;;;;;;;39.90;25.35;;;;;;;36.39;50.31;98052.06;4990600;28;20049;-75
2022/09/19 08:37:46;;;;;;;35.22;24.30;;;;;;;36.07;46.79;98042.50;4973894;28;20057;-76
2022/09/19 08:41:04;;;;;;;35.50;24.27;;;;;;;36.39;48.71;98038.09;4988908;28;20042;-76
2022/09/19 08:44:11;;;;;;;37.22;22.75;;;;;;;36.48;47.60;98043.22;4978023;28;20175;-76
2022/09/19 08:47:18;;;;;;;44.45;25.08;;;;;;;36.54;47.88;98038.84;5011115;28;20054;-76
2022/09/19 08:50:37;;;;;;;40.90;23.00;;;;;;;36.21;47.32;98033.34;5019717;28;20546;-72
2022/09/19 08:53:32;;;;;;;36.67;23.33;;;;;;;36.34;49.28;98028.09;4993276;28;20053;-76
2022/09/19 08:56:19;;;;;;;39.50;23.05;;;;;;;36.40;49.20;98026.50;4985315;28;20050;-76
2022/09/19 08:59:22;;;;;;;34.53;22.75;;;;;;;36.51;50.05;98022.88;4975461;28;20048;-76
2022/09/19 09:02:38;;;;;;;37.03;23.88;;;;;;;36.30;49.87;98023.72;4997386;28;20052;-73
2022/09/19 09:06:24;;;;;;;40.58;22.98;;;;;;;36.23;50.18;98011.38;5019354;28;20041;-74
2022/09/19 09:09:33;;;;;;;44.20;23.15;;;;;;;36.10;49.91;98017.78;4996050;28;20038;-73
2022/09/19 09:12:31;;;;;;;34.53;23.92;;;;;;;35.91;51.37;98024.59;5011990;28;20065;-70
2022/09/19 09:15:47;;;;;;;44.45;25.55;;;;;;;35.79;51.97;98014.59;5007399;28;20525;-74
2022/09/19 09:18:44;;;;;;;36.75;22.50;;;;;;;35.78;53.60;98013.03;4984342;28;20153;-73
2022/09/19 09:21:57;;;;;;;42.22;23.17;;;;;;;35.79;51.81;98015.41;4990218;28;20560;-74
2022/09/19 09:25:05;;;;;;;42.30;22.33;;;;;;;35.61;51.08;98011.81;4985788;28;20496;-74
2022/09/19 09:28:11;;;;;;;37.78;23.40;;;;;;;35.91;52.38;97999.47;4984693;28;20160;-74
2022/09/19 09:31:50;;;;;;;40.10;21.83;;;;;;;35.81;51.38;97996.28;4984760;28;20042;-74
2022/09/19 09:34:49;;;;;;;36.58;22.00;;;;;;;35.89;51.86;97991.47;4974538;28;20042;-74
2022/09/19 09:38:02;;;;;;;44.35;25.08;;;;;;;35.79;51.31;97992.25;4991317;28;20104;-74
2022/09/19 09:44:13;;;;;;;45.65;23.20;;;;;;;35.96;50.14;97985.88;4999397;28;20072;-73
2022/09/19 09:47:25;;;;;;;42.97;22.80;;;;;;;35.93;50.66;97980.31;5006817;28;20049;-75
2022/09/19 09:51:09;;;;;;;34.40;22.00;;;;;;;36.02;49.50;97978.69;5026117;28;20046;-75
2022/09/19 09:56:14;;;;;;;38.17;24.45;;;;;;;35.93;50.40;97972.72;5010129;28;20125;-74
2022/09/19 09:57:36;;;;;;;40.95;24.35;;;;;;;35.69;51.03;97988.28;5027245;28;20137;-74
2022/09/19 10:03:52;;;;;;;47.10;24.67;;;;;;;35.79;49.14;97967.13;5010175;28;20618;-74
2022/09/19 10:07:10;;;;;;;37.35;22.08;;;;;;;35.62;52.03;97974.34;5025111;28;20756;-74
2022/09/19 10:10:11;;;;;;;39.25;21.08;;;;;;;35.29;50.48;97967.94;5007303;28;20049;-75
2022/09/19 10:13:09;;;;;;;32.30;19.83;;;;;;;35.46;50.24;97975.50;5027751;28;20053;-75
2022/09/19 10:16:02;;;;;;;31.38;19.63;;;;;;;35.60;51.07;97966.34;5010377;28;20041;-75
2022/09/19 10:19:07;;;;;;;30.60;19.83;;;;;;;35.45;51.09;97959.19;5011856;28;20052;-75
2022/09/19 10:22:00;;;;;;;26.98;19.08;;;;;;;35.32;51.98;97958.78;5017193;28;20052;-75
2022/09/19 10:25:01;;;;;;;30.38;20.33;;;;;;;35.32;57.87;97958.00;5010122;28;20046;-75
2022/09/19 10:27:49;;;;;;;30.15;19.38;;;;;;;35.23;52.39;97953.59;5009784;28;20496;-75
2022/09/19 10:30:44;;;;;;;29.58;19.85;;;;;;;35.16;56.58;97945.19;5010755;28;20089;-74
2022/09/19 10:33:41;;;;;;;28.40;19.42;;;;;;;35.05;53.55;97956.34;5012797;28;20093;-75
2022/09/19 10:36:37;;;;;;;30.25;19.50;;;;;;;34.78;54.64;97955.91;5019829;28;20050;-75
2022/09/19 10:39:23;;;;;;;32.42;21.95;;;;;;;34.95;55.00;97950.72;5030141;28;20160;-75
2022/09/19 10:42:44;;;;;;;40.60;22.52;;;;;;;34.81;56.32;97945.94;5007763;28;20350;-76
2022/09/19 10:45:37;;;;;;;33.88;20.75;;;;;;;34.84;55.41;97948.72;4999574;28;20049;-75
2022/09/19 10:48:37;;;;;;;31.48;21.58;;;;;;;34.84;57.46;97940.38;5016753;28;20057;-76
2022/09/19 10:51:46;;;;;;;;;;;;;;;34.72;56.34;97946.31;5025742;28;20041;-76
2022/09/19 10:54:58;;;;;;;27.63;20.27;;;;;;;34.38;54.08;97946.56;5004780;28;20015;-75
2022/09/19 10:58:04;;;;;;;31.15;20.73;;;;;;;34.60;54.18;97938.28;5005789;28;20077;-76
2022/09/19 11:01:11;;;;;;;25.98;20.08;;;;;;;34.64;55.32;97939.09;5006594;28;20615;-75
2022/09/19 11:04:18;;;;;;;38.38;20.92;;;;;;;34.56;55.88;97937.47;5008995;28;20053;-75
2022/09/19 11:07:22;;;;;;;31.98;19.98;;;;;;;34.66;55.98;97945.06;5025931;28;20041;-76
2022/09/19 11:10:42;;;;;;;34.40;20.58;;;;;;;34.49;58.76;97944.63;4996027;28;20475;-74
2022/09/19 11:13:44;;;;;;;29.42;20.52;;;;;;;34.47;56.82;97944.22;5009054;28;20057;-76
2022/09/19 11:16:46;;;;;;;39.08;21.73;;;;;;;34.30;55.45;97939.38;5009047;28;20064;-76
2022/09/19 11:19:57;;;;;;;32.00;20.08;;;;;;;34.52;57.33;97946.63;5006132;28;20053;-76
2022/09/19 11:23:14;;;;;;;33.28;19.98;;;;;;;34.44;57.29;97938.63;5001328;28;20064;-76
2022/09/19 11:26:46;;;;;;;29.02;19.30;;;;;;;34.50;56.04;97937.84;5002274;28;20045;-76
2022/09/19 11:29:58;;;;;;;33.95;20.67;;;;;;;34.51;57.64;97941.47;4998740;28;20056;-76
2022/09/19 11:33:16;;;;;;;39.63;20.60;;;;;;;34.35;60.35;97936.22;5009737;28;20033;-75
2022/09/19 11:36:57;;;;;;;38.38;21.42;;;;;;;34.25;58.48;97942.53;5010076;28;20045;-75
2022/09/19 11:40:11;;;;;;;31.33;19.33;;;;;;;34.36;57.13;97948.97;5024839;28;20050;-76
2022/09/19 11:43:29;;;;;;;31.55;19.95;;;;;;;34.20;60.08;97943.69;5025371;28;20045;-76
2022/09/19 11:46:19;;;;;;;37.00;21.40;;;;;;;34.20;60.05;97945.69;5019418;28;20065;-75
2022/09/19 11:49:50;;;;;;;31.77;20.27;;;;;;;34.14;58.92;97951.59;5008103;28;20049;-75
2022/09/19 11:53:01;;;;;;;36.72;20.35;;;;;;;34.05;56.84;97948.38;5004438;28;20050;-76
2022/09/19 11:56:39;;;;;;;33.70;20.07;;;;;;;34.17;58.27;97952.84;5007995;28;20037;-76
2022/09/19 11:59:42;;;;;;;34.00;19.63;;;;;;;34.11;59.28;97949.59;5004485;28;20049;-76
2022/09/19 12:02:50;;;;;;;35.90;20.90;;;;;;;34.11;59.66;97949.59;5022240;28;20115;-77
2022/09/19 12:05:57;;;;;;;34.33;19.42;;;;;;;34.05;59.54;97948.38;4989539;28;20041;-75
2022/09/19 12:09:12;;;;;;;27.67;19.35;;;;;;;34.05;57.71;97953.13;5007425;28;20508;-75
2022/09/19 12:12:28;;;;;;;34.35;18.50;;;;;;;34.01;59.45;97950.34;4996230;28;20045;-75
2022/09/19 12:15:32;;;;;;;28.70;19.48;;;;;;;33.96;59.42;97949.94;5006042;28;20050;-76
2022/09/19 12:18:42;;;;;;;30.88;18.92;;;;;;;33.95;59.11;97946.31;4993183;28;20045;-76
2022/09/19 12:22:11;;;;;;;31.48;19.23;;;;;;;33.84;59.57;97948.25;4992069;28;20081;-76
2022/09/19 12:25:05;;;;;;;31.40;19.45;;;;;;;33.87;59.25;97956.63;5007573;28;20048;-76
2022/09/19 12:28:05;;;;;;;35.15;19.20;;;;;;;33.92;58.62;97959.03;4992145;28;20041;-75
2022/09/19 12:31:03;;;;;;;28.27;19.88;;;;;;;33.88;58.71;97960.19;5008594;28;20054;-76
2022/09/19 12:34:24;;;;;;;33.22;19.17;;;;;;;33.77;58.15;97962.13;5008961;28;20049;-76
2022/09/19 12:37:25;;;;;;;29.25;20.58;;;;;;;33.84;57.85;97962.16;4992274;28;20049;-74
2022/09/19 12:40:17;;;;;;;32.03;20.20;;;;;;;33.77;58.25;97956.56;5021126;28;20387;-74
2022/09/19 12:43:27;;;;;;;38.50;22.15;;;;;;;33.65;59.06;97955.69;5028701;28;20392;-75
2022/09/19 12:46:34;;;;;;;45.38;25.83;;;;;;;33.68;60.26;97956.91;5007243;28;20065;-75
2022/09/19 12:49:42;;;;;;;47.33;25.88;;;;;;;33.63;58.29;97957.22;5004667;28;20057;-75
2022/09/19 12:52:41;;;;;;;48.25;27.52;;;;;;;33.58;59.76;97952.03;5005711;28;20536;-76
2022/09/19 12:55:32;;;;;;;48.10;26.65;;;;;;;33.50;57.03;97959.53;5009140;28;20049;-75
2022/09/19 12:58:31;;;;;;;45.40;25.63;;;;;;;33.52;58.66;97962.72;5023941;28;20057;-76
2022/09/19 13:01:25;;;;;;;45.67;22.58;;;;;;;33.54;56.10;97963.91;5009883;28;20154;-74
2022/09/19 13:04:52;;;;;;;40.47;21.40;;;;;;;33.51;58.24;97963.88;5024085;28;20140;-76
2022/09/19 13:08:06;;;;;;;35.08;19.85;;;;;;;33.53;57.76;97964.31;5028112;28;20073;-74
2022/09/19 13:11:01;;;;;;;30.65;20.02;;;;;;;33.51;58.14;97958.31;5009889;28;20060;-75
2022/09/19 13:14:08;;;;;;;40.08;20.77;;;;;;;33.46;57.71;97958.69;5028396;28;20077;-73
2022/09/19 13:26:17;;;;;;;40.85;21.00;;;;;;;33.39;58.44;97956.66;5023133;28;20033;-72
2022/09/19 13:29:02;;;;;;;37.75;20.80;;;;;;;33.34;59.32;97957.81;5012806;28;20477;-69
2022/09/19 13:31:58;;;;;;;34.65;20.08;;;;;;;33.28;59.40;97964.88;5028438;28;20042;-72
2022/09/19 13:35:11;;;;;;;35.22;19.60;;;;;;;33.26;58.89;97970.03;5012945;28;20052;-73
2022/09/19 13:37:59;;;;;;;35.42;20.60;;;;;;;33.22;59.00;97969.22;4972402;28;20715;-73
2022/09/19 13:41:08;;;;;;;37.28;21.33;;;;;;;33.18;58.92;97971.16;5028469;28;20480;-71
2022/09/19 13:44:20;;;;;;;36.63;20.90;;;;;;;33.18;60.01;97976.72;5011829;28;20056;-73
2022/09/19 13:47:37;;;;;;;37.08;20.10;;;;;;;33.09;59.96;97973.44;5026017;28;20053;-73
2022/09/19 13:50:35;;;;;;;39.22;21.33;;;;;;;33.01;60.69;97972.56;5025681;28;20059;-73
2022/09/19 13:53:55;;;;;;;46.90;21.92;;;;;;;33.09;60.48;97967.88;4987974;28;20508;-73
2022/09/19 13:56:41;;;;;;;35.75;20.98;;;;;;;33.09;59.81;97973.44;5009333;28;20731;-72
2022/09/19 13:59:35;;;;;;;36.10;20.80;;;;;;;33.06;59.87;97982.56;5006321;28;20053;-73
2022/09/19 14:02:24;;;;;;;42.92;22.67;;;;;;;33.03;59.64;97980.53;5009661;28;20056;-71
2022/09/19 14:05:32;;;;;;;35.50;20.67;;;;;;;33.06;59.36;97988.09;5026101;28;20050;-71